Main page
METAR-TAF:

METAR-TAF

Airports :

Beirut Air Base

Beirut, Lebanon

latitude: 33-49N, longitude: 035-29E, elevation: 29 m

METAR: missing

Time: 01:16 (22:16 UTC)

Forecast

The report was made 6 hours and 16 minutes ago, at 16:00 UTC
Forecast valid from 24 at 18 UTC to 25 at 24 UTC
Wind 6 kt from the North/Northeast
Visibility: 8000 m
Becoming
from 24 at 22 UTC to 24 at 24 UTC
Wind 4 kt from the East
Becoming
from 25 at 06 UTC to 25 at 08 UTC
Wind 10 kt from the West
Scattered clouds at a height of 2600 ft
Temporary
from 25 at 06 UTC to 25 at 14 UTC
Visibility: 5000 m
mist
Becoming
from 25 at 18 UTC to 25 at 20 UTC
Wind 4 kt from the Southeast
Broken clouds at a height of 2600 ft

TAF: OLBA 241600Z 2418/2524 03006KT 8000 NSC BECMG 2422/2424 10004KT BECMG 2506/2508 28010KT SCT026 TEMPO 2506/2514 5000 BR BECMG 2518/2520 14004KT BKN026

Weather observations and forecasts of more than 4000 airports (METAR and TAF reports).

The available stations are represented by yellow and red dots on the map.

Hover mouse over dot to see the name of the station.

Then click to see weather observations and forecasts.

To change the map : click on the green buttons with a black cross to zoom in, on the green button with a dash to zoom out, or on the green arrows for adjacent maps.


METAR-TAF: